createdAt,value
2017-11-10T00:00:27.469Z,100.00
2017-11-10T00:02:55.171Z,100.00
2017-11-10T00:05:22.781Z,100.00
2017-11-10T00:07:50.432Z,100.00
2017-11-10T00:10:18.094Z,100.00
2017-11-10T00:12:45.781Z,100.00
2017-11-10T00:15:13.437Z,100.00
2017-11-10T00:17:41.123Z,100.00
2017-11-10T00:20:08.803Z,100.00
2017-11-10T00:22:36.432Z,100.00
2017-11-10T00:25:04.108Z,100.00
2017-11-10T00:27:31.816Z,100.00
2017-11-10T00:29:59.506Z,100.00
2017-11-10T00:32:27.164Z,100.00
2017-11-10T00:34:54.866Z,100.00
2017-11-10T00:37:22.462Z,100.00
2017-11-10T00:39:50.191Z,100.00
2017-11-10T00:42:17.796Z,100.00
2017-11-10T00:44:45.500Z,100.00
2017-11-10T00:47:13.163Z,100.00
2017-11-10T00:49:40.880Z,100.00
2017-11-10T00:52:08.541Z,100.00
2017-11-10T00:54:36.222Z,100.00
2017-11-10T00:57:03.883Z,100.00
2017-11-10T00:59:31.584Z,100.00
2017-11-10T01:01:59.254Z,100.00
2017-11-10T01:04:26.945Z,100.00
2017-11-10T01:06:54.629Z,100.00
2017-11-10T01:09:22.319Z,100.00
2017-11-10T01:11:49.975Z,100.00
2017-11-10T01:14:20.491Z,100.00
2017-11-10T01:16:48.971Z,100.00
2017-11-10T01:19:16.657Z,100.00
2017-11-10T01:21:46.218Z,100.00
2017-11-10T01:24:13.927Z,100.00
2017-11-10T01:26:41.600Z,100.00
2017-11-10T01:29:09.260Z,100.00
2017-11-10T01:31:36.943Z,100.00
2017-11-10T01:34:04.595Z,100.00
2017-11-10T01:36:32.295Z,100.00
2017-11-10T01:38:59.967Z,100.00
2017-11-10T01:41:27.719Z,100.00
2017-11-10T01:43:55.381Z,100.00
2017-11-10T01:46:23.012Z,100.00
2017-11-10T01:48:52.470Z,100.00
2017-11-10T01:51:20.177Z,100.00
2017-11-10T01:53:47.865Z,100.00
2017-11-10T01:56:15.517Z,100.00
2017-11-10T01:58:43.190Z,100.00
2017-11-10T02:01:10.892Z,100.00
2017-11-10T02:03:38.553Z,100.00
2017-11-10T02:06:06.251Z,100.00
2017-11-10T02:08:33.919Z,100.00
2017-11-10T02:11:01.615Z,100.00
2017-11-10T02:13:29.286Z,100.00
2017-11-10T02:15:56.919Z,100.00
2017-11-10T02:18:24.590Z,100.00
2017-11-10T02:20:52.307Z,100.00
2017-11-10T02:23:19.961Z,100.00
2017-11-10T02:25:47.650Z,100.00
2017-11-10T02:28:15.359Z,100.00
2017-11-10T02:30:43.025Z,100.00
2017-11-10T02:33:10.682Z,100.00
2017-11-10T02:35:38.402Z,100.00
2017-11-10T02:38:06.087Z,100.00
2017-11-10T02:40:33.800Z,100.00
2017-11-10T02:43:01.540Z,100.00
2017-11-10T02:45:29.195Z,100.00
2017-11-10T02:47:56.847Z,100.00
2017-11-10T02:50:24.520Z,100.00
2017-11-10T02:52:52.230Z,100.00
2017-11-10T02:55:19.928Z,100.00
2017-11-10T02:57:47.577Z,100.00
2017-11-10T03:00:15.249Z,100.00
2017-11-10T03:02:42.969Z,100.00
2017-11-10T03:05:10.647Z,100.00
2017-11-10T03:07:38.364Z,100.00
2017-11-10T03:10:06.105Z,100.00
2017-11-10T03:12:33.786Z,100.00
2017-11-10T03:15:01.544Z,100.00
2017-11-10T03:17:29.254Z,100.00
2017-11-10T03:19:56.962Z,100.00
2017-11-10T03:22:24.578Z,100.00
2017-11-10T03:24:52.297Z,100.00
2017-11-10T03:27:19.964Z,100.00
2017-11-10T03:29:47.704Z,100.00
2017-11-10T03:32:15.372Z,100.00
2017-11-10T03:34:43.079Z,100.00
2017-11-10T03:37:10.808Z,100.00
2017-11-10T03:39:38.444Z,100.00
2017-11-10T03:42:06.115Z,100.00
2017-11-10T03:44:33.825Z,100.00
2017-11-10T03:47:01.543Z,100.00
2017-11-10T03:49:29.258Z,100.00
2017-11-10T03:51:56.931Z,100.00
2017-11-10T03:54:24.637Z,100.00
2017-11-10T03:56:52.316Z,100.00
2017-11-10T03:59:20.041Z,100.00
2017-11-10T04:01:47.720Z,100.00
2017-11-10T04:04:15.390Z,100.00
2017-11-10T04:06:43.111Z,100.00
2017-11-10T04:09:10.788Z,100.00
2017-11-10T04:11:38.448Z,100.00
2017-11-10T04:14:06.176Z,100.00
2017-11-10T04:16:33.920Z,100.00
2017-11-10T04:19:01.525Z,100.00
2017-11-10T04:21:29.176Z,100.00
2017-11-10T04:23:56.845Z,100.00
2017-11-10T04:26:24.584Z,100.00
2017-11-10T04:28:52.266Z,100.00
2017-11-10T04:31:19.994Z,100.00
2017-11-10T04:33:47.653Z,100.00
2017-11-10T04:36:15.327Z,100.00
2017-11-10T04:38:43.037Z,100.00
2017-11-10T04:41:10.823Z,100.00
2017-11-10T04:43:38.495Z,100.00
2017-11-10T04:46:06.185Z,100.00
2017-11-10T04:48:33.854Z,100.00
2017-11-10T04:51:01.574Z,100.00
2017-11-10T04:53:29.252Z,100.00
2017-11-10T04:55:56.944Z,100.00
2017-11-10T04:58:24.548Z,100.00
2017-11-10T05:00:52.195Z,100.00
2017-11-10T05:03:19.863Z,100.00
2017-11-10T05:05:47.583Z,100.00
2017-11-10T05:08:15.259Z,100.00
2017-11-10T05:10:42.983Z,100.00
2017-11-10T05:13:10.644Z,100.00
2017-11-10T05:15:38.260Z,100.00
2017-11-10T05:18:05.967Z,100.00
2017-11-10T05:20:33.645Z,100.00
2017-11-10T05:23:01.381Z,100.00
2017-11-10T05:25:29.045Z,100.00
2017-11-10T05:27:56.771Z,100.00
2017-11-10T05:30:24.467Z,100.00
2017-11-10T05:32:52.139Z,100.00
2017-11-10T05:35:19.840Z,100.00
2017-11-10T05:37:47.515Z,100.00
2017-11-10T05:40:15.249Z,100.00
2017-11-10T05:42:42.987Z,100.00
2017-11-10T05:45:10.665Z,100.00
2017-11-10T05:47:38.403Z,100.00
2017-11-10T05:50:06.115Z,100.00
2017-11-10T05:52:33.838Z,100.00
2017-11-10T05:55:01.517Z,100.00
2017-11-10T05:57:29.269Z,100.00
2017-11-10T05:59:56.972Z,100.00
2017-11-10T06:02:24.744Z,100.00
2017-11-10T06:04:52.420Z,100.00
2017-11-10T06:07:20.164Z,100.00
2017-11-10T06:09:47.841Z,100.00
2017-11-10T06:12:15.508Z,100.00
2017-11-10T06:14:43.288Z,100.00
2017-11-10T06:17:10.881Z,100.00
2017-11-10T06:19:38.573Z,100.00
2017-11-10T06:22:06.253Z,100.00
2017-11-10T06:24:34.006Z,100.00
2017-11-10T06:27:01.679Z,100.00
2017-11-10T06:29:29.412Z,100.00
2017-11-10T06:31:57.066Z,100.00
2017-11-10T06:34:24.695Z,100.00
2017-11-10T06:36:52.365Z,100.00
2017-11-10T06:39:20.015Z,100.00
2017-11-10T06:41:47.732Z,100.00
2017-11-10T06:44:15.431Z,100.00
2017-11-10T06:46:43.097Z,100.00
2017-11-10T06:49:10.752Z,100.00
2017-11-10T06:51:38.448Z,100.00
2017-11-10T06:54:06.165Z,100.00
2017-11-10T06:56:33.770Z,100.00
2017-11-10T06:59:01.513Z,100.00
2017-11-10T07:01:29.182Z,100.00
2017-11-10T07:03:56.916Z,100.00
2017-11-10T07:06:24.603Z,100.00
2017-11-10T07:08:52.262Z,100.00
2017-11-10T07:11:19.963Z,100.00
2017-11-10T07:13:47.569Z,100.00
2017-11-10T07:16:15.250Z,100.00
2017-11-10T07:18:42.911Z,100.00
2017-11-10T07:21:10.546Z,100.00
2017-11-10T07:23:38.164Z,100.00
2017-11-10T07:26:05.803Z,100.00
2017-11-10T07:28:33.417Z,100.00
2017-11-10T07:31:01.089Z,100.00
2017-11-10T07:33:28.692Z,100.00
2017-11-10T07:35:56.339Z,100.00
2017-11-10T07:38:23.923Z,100.00
2017-11-10T07:40:51.564Z,100.00
2017-11-10T07:43:19.199Z,100.00
2017-11-10T07:45:46.835Z,100.00
2017-11-10T07:48:14.439Z,100.00
2017-11-10T07:50:42.104Z,100.00
2017-11-10T07:53:09.707Z,100.00
2017-11-10T07:55:37.348Z,100.00
2017-11-10T07:58:04.951Z,100.00
2017-11-10T08:00:32.598Z,100.00
2017-11-10T08:03:00.231Z,100.00
2017-11-10T08:05:27.828Z,100.00
2017-11-10T08:07:55.479Z,100.00
2017-11-10T08:10:23.108Z,100.00
2017-11-10T08:12:50.738Z,99.83
2017-11-10T08:15:18.351Z,99.66
2017-11-10T08:17:46.007Z,99.49
2017-11-10T08:20:13.608Z,99.52
2017-11-10T08:22:41.260Z,99.29
2017-11-10T08:25:08.873Z,99.20
2017-11-10T08:27:36.535Z,98.94
2017-11-10T08:30:04.118Z,98.96
2017-11-10T08:32:31.830Z,98.99
2017-11-10T08:34:59.439Z,98.95
2017-11-10T08:37:27.068Z,98.72
2017-11-10T08:39:54.671Z,98.41
2017-11-10T08:42:22.337Z,98.22
2017-11-10T08:44:49.984Z,98.28
2017-11-10T08:47:17.624Z,98.15
2017-11-10T08:49:45.252Z,97.73
2017-11-10T08:52:12.909Z,97.52
2017-11-10T08:54:40.698Z,97.31
2017-11-10T08:57:08.422Z,97.11
2017-11-10T08:59:36.032Z,96.94
2017-11-10T09:02:03.642Z,97.01
2017-11-10T09:04:31.288Z,97.06
2017-11-10T09:06:58.887Z,97.14
2017-11-10T09:09:26.549Z,97.03
2017-11-10T09:11:54.162Z,96.58
2017-11-10T09:14:21.803Z,96.75
2017-11-10T09:16:49.402Z,97.03
2017-11-10T09:19:17.084Z,96.74
2017-11-10T09:21:44.723Z,96.84
2017-11-10T09:24:12.387Z,96.65
2017-11-10T09:26:40.040Z,96.39
2017-11-10T09:32:15.588Z,96.74
2017-11-10T09:34:45.829Z,96.65
2017-11-10T09:37:19.057Z,96.75
2017-11-10T09:39:52.525Z,96.86
2017-11-10T09:42:37.012Z,96.96
2017-11-10T09:45:10.171Z,97.07
2017-11-10T09:51:00.383Z,97.48
2017-11-10T09:56:37.833Z,97.59
2017-11-10T09:59:11.073Z,97.69
2017-11-10T10:01:41.285Z,97.57
2017-11-10T10:04:25.725Z,97.49
2017-11-10T10:06:59.237Z,97.48
2017-11-10T10:09:30.483Z,97.51
2017-11-10T10:15:09.536Z,97.16
2017-11-10T10:21:06.824Z,96.70
2017-11-10T10:23:34.554Z,96.65
2017-11-10T10:26:02.228Z,96.84
2017-11-10T10:28:30.761Z,96.93
2017-11-10T10:31:01.066Z,96.73
2017-11-10T10:33:34.869Z,96.57
2017-11-10T10:36:04.315Z,96.08
2017-11-10T10:38:35.781Z,95.92
2017-11-10T10:41:06.994Z,96.09
2017-11-10T10:43:39.004Z,95.87
2017-11-10T10:46:06.986Z,96.06
2017-11-10T10:48:34.756Z,95.38
2017-11-10T10:51:04.102Z,95.20
2017-11-10T10:53:36.446Z,94.56
2017-11-10T10:56:07.136Z,94.13
2017-11-10T10:58:36.073Z,94.52
2017-11-10T11:01:04.473Z,94.54
2017-11-10T11:03:34.393Z,94.69
2017-11-10T11:06:02.143Z,94.51
2017-11-10T11:08:34.046Z,94.38
2017-11-10T11:11:02.451Z,94.17
2017-11-10T11:13:30.130Z,94.38
2017-11-10T11:15:58.699Z,94.34
2017-11-10T11:18:27.221Z,93.98
2017-11-10T11:20:54.932Z,93.44
2017-11-10T11:23:24.356Z,93.73
2017-11-10T11:25:58.893Z,93.74
2017-11-10T11:28:33.381Z,94.32
2017-11-10T11:31:01.301Z,93.99
2017-11-10T11:33:34.149Z,93.47
2017-11-10T11:36:01.840Z,93.72
2017-11-10T11:38:31.311Z,93.52
2017-11-10T11:40:58.966Z,92.76
2017-11-10T11:43:26.711Z,92.61
2017-11-10T11:45:56.014Z,92.66
2017-11-10T11:48:25.141Z,92.41
2017-11-10T11:53:33.766Z,92.61
2017-11-10T11:56:03.083Z,92.85
2017-11-10T11:58:36.052Z,92.56
2017-11-10T12:01:04.068Z,92.42
2017-11-10T12:03:33.156Z,92.21
2017-11-10T12:06:03.081Z,92.11
2017-11-10T12:08:31.323Z,92.37
2017-11-10T12:11:01.295Z,92.18
2017-11-10T12:13:29.404Z,92.00
2017-11-10T12:16:02.107Z,91.92
2017-11-10T12:18:30.587Z,91.98
2017-11-10T12:20:58.478Z,92.16
2017-11-10T12:23:26.917Z,91.83
2017-11-10T12:25:55.542Z,92.00
2017-11-10T12:28:25.280Z,91.87
2017-11-10T12:30:54.178Z,91.92
2017-11-10T12:33:21.908Z,92.65
2017-11-10T12:35:49.597Z,92.15
2017-11-10T12:38:17.679Z,92.73
2017-11-10T12:40:45.486Z,92.71
2017-11-10T12:43:13.644Z,92.47
2017-11-10T12:45:41.336Z,92.42
2017-11-10T12:48:09.284Z,92.63
2017-11-10T12:50:37.099Z,93.33
2017-11-10T12:53:05.285Z,93.16
2017-11-10T12:55:34.266Z,92.80
2017-11-10T12:58:02.837Z,92.79
2017-11-10T13:00:31.784Z,93.47
2017-11-10T13:02:59.759Z,93.43
2017-11-10T13:05:29.052Z,93.44
2017-11-10T13:07:56.813Z,92.97
2017-11-10T13:10:25.852Z,92.59
2017-11-10T13:12:54.016Z,92.32
2017-11-10T13:15:21.761Z,90.91
2017-11-10T13:17:49.520Z,91.39
2017-11-10T13:20:18.236Z,90.62
2017-11-10T13:22:46.106Z,90.44
2017-11-10T13:25:13.784Z,90.54
2017-11-10T13:27:42.241Z,90.44
2017-11-10T13:30:10.073Z,90.52
2017-11-10T13:32:37.813Z,91.05
2017-11-10T13:35:05.477Z,90.72
2017-11-10T13:37:33.125Z,90.38
2017-11-10T13:40:00.783Z,89.79
2017-11-10T13:42:30.355Z,90.33
2017-11-10T13:44:58.678Z,89.94
2017-11-10T13:47:26.494Z,89.78
2017-11-10T13:49:55.809Z,89.24
2017-11-10T13:52:23.479Z,89.07
2017-11-10T13:54:51.160Z,88.89
2017-11-10T13:57:18.945Z,89.29
2017-11-10T13:59:48.145Z,89.11
2017-11-10T14:02:16.196Z,89.57
2017-11-10T14:04:44.145Z,89.67
2017-11-10T14:07:12.012Z,90.33
2017-11-10T14:09:39.683Z,90.51
2017-11-10T14:12:08.601Z,90.67
2017-11-10T14:14:36.330Z,91.47
2017-11-10T14:17:04.127Z,92.17
2017-11-10T14:19:31.942Z,93.18
2017-11-10T14:21:59.641Z,94.38
2017-11-10T14:24:27.304Z,93.89
2017-11-10T14:26:54.980Z,94.69
2017-11-10T14:29:22.642Z,94.55
2017-11-10T14:31:50.278Z,94.77
2017-11-10T14:34:17.916Z,95.45
2017-11-10T14:36:45.523Z,95.67
2017-11-10T14:39:13.197Z,94.49
2017-11-10T14:41:40.970Z,95.29
2017-11-10T14:44:08.676Z,95.14
2017-11-10T14:46:36.297Z,95.47
2017-11-10T14:49:04.008Z,95.96
2017-11-10T14:51:32.303Z,96.41
2017-11-10T14:54:00.037Z,96.31
2017-11-10T14:56:27.759Z,96.77
2017-11-10T14:58:55.442Z,96.97
2017-11-10T15:01:23.105Z,97.10
2017-11-10T15:03:50.781Z,97.15
2017-11-10T15:06:18.468Z,97.20
2017-11-10T15:08:46.114Z,97.31
2017-11-10T15:11:13.799Z,97.31
2017-11-10T15:13:41.431Z,97.39
2017-11-10T15:16:09.115Z,97.27
2017-11-10T15:18:36.820Z,97.35
2017-11-10T15:21:04.474Z,97.45
2017-11-10T15:23:32.208Z,97.41
2017-11-10T15:25:59.935Z,97.45
2017-11-10T15:28:27.607Z,97.61
2017-11-10T15:30:55.296Z,97.72
2017-11-10T15:33:22.959Z,97.87
2017-11-10T15:35:50.592Z,97.99
2017-11-10T15:38:18.272Z,98.13
2017-11-10T15:40:45.968Z,98.17
2017-11-10T15:43:13.623Z,98.29
2017-11-10T15:45:41.369Z,98.41
2017-11-10T15:48:09.016Z,98.38
2017-11-10T15:50:36.647Z,98.41
2017-11-10T15:53:04.297Z,98.64
2017-11-10T15:55:31.957Z,98.93
2017-11-10T15:57:59.614Z,99.19
2017-11-10T16:00:27.354Z,99.12
2017-11-10T16:02:55.013Z,98.95
2017-11-10T16:05:22.651Z,99.06
2017-11-10T16:07:50.329Z,97.59
2017-11-10T16:10:17.958Z,98.10
2017-11-10T16:12:45.607Z,98.38
2017-11-10T16:15:13.242Z,97.29
2017-11-10T16:17:40.916Z,97.41
2017-11-10T16:20:08.891Z,95.88
2017-11-10T16:22:36.638Z,94.17
2017-11-10T16:25:04.239Z,95.43
2017-11-10T16:27:31.909Z,95.87
2017-11-10T16:29:59.636Z,95.86
2017-11-10T16:32:27.284Z,95.83
2017-11-10T16:34:54.921Z,96.22
2017-11-10T16:37:23.515Z,96.55
2017-11-10T16:39:51.997Z,96.71
2017-11-10T16:42:19.656Z,96.87
2017-11-10T16:44:47.304Z,97.09
2017-11-10T16:47:14.947Z,97.36
2017-11-10T16:49:42.600Z,97.51
2017-11-10T16:52:10.246Z,97.67
2017-11-10T16:54:37.902Z,97.85
2017-11-10T16:57:05.560Z,97.95
2017-11-10T16:59:33.208Z,98.01
2017-11-10T17:02:00.859Z,98.11
2017-11-10T17:04:28.590Z,98.18
2017-11-10T17:06:56.246Z,98.33
2017-11-10T17:09:23.911Z,98.45
2017-11-10T17:11:51.520Z,98.54
2017-11-10T17:14:19.198Z,98.66
2017-11-10T17:16:46.840Z,98.74
2017-11-10T17:19:14.484Z,98.22
2017-11-10T17:21:42.136Z,96.63
2017-11-10T17:24:09.817Z,96.12
2017-11-10T17:26:37.465Z,96.17
2017-11-10T17:29:05.095Z,96.50
2017-11-10T17:31:32.761Z,96.24
2017-11-10T17:34:00.404Z,96.53
2017-11-10T17:36:28.045Z,96.64
2017-11-10T17:38:55.708Z,96.72
2017-11-10T17:41:23.364Z,96.52
2017-11-10T17:43:51.084Z,96.61
2017-11-10T17:46:18.741Z,96.67
2017-11-10T17:48:46.410Z,96.24
2017-11-10T17:51:14.080Z,96.21
2017-11-10T17:53:41.738Z,96.10
2017-11-10T17:56:09.384Z,96.30
2017-11-10T17:58:37.053Z,96.59
2017-11-10T18:01:04.695Z,96.73
2017-11-10T18:03:32.368Z,96.71
2017-11-10T18:06:00.043Z,96.69
2017-11-10T18:08:27.694Z,96.61
2017-11-10T18:10:56.318Z,96.41
2017-11-10T18:13:23.982Z,96.06
2017-11-10T18:15:51.647Z,95.54
2017-11-10T18:18:19.503Z,95.26
2017-11-10T18:20:47.151Z,94.38
2017-11-10T18:23:14.803Z,94.09
2017-11-10T18:25:42.458Z,94.00
2017-11-10T18:28:10.108Z,93.50
2017-11-10T18:30:37.778Z,93.56
2017-11-10T18:33:05.444Z,93.70
2017-11-10T18:35:33.141Z,93.66
2017-11-10T18:38:01.564Z,93.49
2017-11-10T18:40:29.267Z,93.69
2017-11-10T18:42:56.921Z,93.54
2017-11-10T18:45:24.594Z,93.37
2017-11-10T18:47:52.268Z,93.25
2017-11-10T18:50:19.935Z,93.11
2017-11-10T18:52:47.596Z,93.23
2017-11-10T18:55:17.041Z,93.46
2017-11-10T18:57:44.729Z,93.38
2017-11-10T19:00:12.418Z,93.47
2017-11-10T19:02:40.141Z,93.72
2017-11-10T19:05:07.829Z,93.75
2017-11-10T19:07:35.469Z,93.80
2017-11-10T19:10:03.130Z,93.77
2017-11-10T19:12:30.779Z,93.49
2017-11-10T19:14:58.602Z,93.59
2017-11-10T19:17:26.272Z,93.64
2017-11-10T19:19:53.910Z,93.75
2017-11-10T19:22:21.600Z,93.85
2017-11-10T19:24:49.252Z,94.08
2017-11-10T19:27:16.902Z,94.26
2017-11-10T19:29:44.525Z,94.47
2017-11-10T19:32:12.184Z,94.55
2017-11-10T19:34:39.860Z,94.89
2017-11-10T19:37:07.507Z,95.07
2017-11-10T19:39:35.221Z,95.17
2017-11-10T19:42:03.606Z,95.25
2017-11-10T19:44:31.316Z,95.17
2017-11-10T19:46:58.994Z,95.23
2017-11-10T19:49:26.820Z,95.22
2017-11-10T19:51:54.528Z,95.07
2017-11-10T19:54:22.244Z,94.59
2017-11-10T19:56:49.926Z,94.60
2017-11-10T19:59:17.679Z,95.09
2017-11-10T20:01:45.425Z,96.24
2017-11-10T20:04:14.080Z,96.09
2017-11-10T20:06:42.665Z,96.58
2017-11-10T20:09:10.437Z,96.49
2017-11-10T20:11:38.306Z,96.73
2017-11-10T20:14:06.054Z,97.04
2017-11-10T20:16:33.835Z,97.31
2017-11-10T20:19:02.904Z,97.22
2017-11-10T20:21:32.042Z,97.35
2017-11-10T20:24:00.758Z,97.45
2017-11-10T20:26:28.529Z,97.68
2017-11-10T20:28:56.250Z,97.97
2017-11-10T20:31:24.028Z,98.01
2017-11-10T20:33:51.860Z,98.00
2017-11-10T20:36:19.705Z,98.05
2017-11-10T20:38:47.550Z,98.20
2017-11-10T20:41:15.448Z,98.38
2017-11-10T20:43:43.282Z,98.38
2017-11-10T20:46:11.161Z,98.32
2017-11-10T20:48:39.051Z,98.29
2017-11-10T20:51:06.879Z,98.16
2017-11-10T20:53:34.732Z,98.04
2017-11-10T20:56:02.470Z,98.01
2017-11-10T20:58:30.221Z,98.08
2017-11-10T21:00:58.057Z,98.24
2017-11-10T21:03:25.810Z,98.24
2017-11-10T21:05:53.588Z,98.33
2017-11-10T21:08:21.216Z,98.51
2017-11-10T21:10:48.890Z,98.79
2017-11-10T21:13:16.594Z,98.74
2017-11-10T21:15:44.333Z,98.61
2017-11-10T21:18:12.069Z,98.53
2017-11-10T21:20:39.808Z,98.46
2017-11-10T21:23:07.540Z,98.41
2017-11-10T21:25:35.272Z,98.31
2017-11-10T21:28:03.035Z,98.20
2017-11-10T21:30:30.692Z,98.29
2017-11-10T21:32:58.397Z,98.25
2017-11-10T21:35:26.125Z,98.19
2017-11-10T21:37:53.977Z,98.23
2017-11-10T21:40:21.772Z,98.08
2017-11-10T21:42:49.479Z,97.19
2017-11-10T21:45:17.206Z,97.47
2017-11-10T21:47:44.941Z,97.53
2017-11-10T21:50:12.652Z,97.40
2017-11-10T21:52:40.401Z,97.41
2017-11-10T21:55:08.143Z,97.22
2017-11-10T21:57:35.882Z,97.74
2017-11-10T22:00:03.610Z,98.15
2017-11-10T22:02:31.294Z,98.40
2017-11-10T22:04:59.026Z,98.38
2017-11-10T22:07:26.687Z,98.57
2017-11-10T22:09:54.512Z,98.72
2017-11-10T22:12:22.270Z,98.85
2017-11-10T22:14:50.036Z,99.04
2017-11-10T22:17:17.753Z,99.17
2017-11-10T22:19:45.530Z,99.19
2017-11-10T22:22:13.233Z,99.25
2017-11-10T22:24:40.890Z,99.25
2017-11-10T22:27:08.672Z,99.17
2017-11-10T22:29:36.420Z,98.91
2017-11-10T22:32:04.097Z,98.42
2017-11-10T22:34:31.755Z,98.29
2017-11-10T22:36:59.439Z,97.76
2017-11-10T22:39:27.044Z,97.81
2017-11-10T22:41:54.807Z,97.63
2017-11-10T22:44:22.446Z,98.09
2017-11-10T22:46:50.085Z,98.17
2017-11-10T22:49:17.729Z,98.31
2017-11-10T22:51:45.362Z,97.75
2017-11-10T22:54:13.001Z,96.57
2017-11-10T22:56:40.729Z,96.62
2017-11-10T22:59:08.448Z,96.91
2017-11-10T23:01:36.170Z,95.63
2017-11-10T23:04:03.847Z,96.19
2017-11-10T23:06:31.582Z,97.04
2017-11-10T23:08:59.232Z,97.61
2017-11-10T23:11:26.945Z,98.02
2017-11-10T23:13:54.677Z,98.50
2017-11-10T23:16:22.413Z,98.63
2017-11-10T23:18:50.108Z,98.63
2017-11-10T23:21:17.775Z,98.27
2017-11-10T23:23:45.426Z,98.40
2017-11-10T23:26:13.127Z,98.51
2017-11-10T23:28:40.811Z,98.66
2017-11-10T23:31:08.456Z,98.67
2017-11-10T23:33:36.122Z,98.87
2017-11-10T23:36:03.809Z,99.01
2017-11-10T23:38:31.552Z,99.12
2017-11-10T23:40:59.294Z,99.26
2017-11-10T23:43:26.951Z,99.45
2017-11-10T23:45:54.653Z,99.56
2017-11-10T23:48:22.353Z,99.68
2017-11-10T23:50:50.093Z,99.78
2017-11-10T23:53:17.802Z,99.83
2017-11-10T23:55:45.497Z,99.86
2017-11-10T23:58:13.143Z,99.98
